createdAt,value
2023-05-17T00:01:56.845Z,6.50
2023-05-17T00:04:25.425Z,5.90
2023-05-17T00:06:53.897Z,4.37
2023-05-17T00:09:22.326Z,5.10
2023-05-17T00:11:50.751Z,6.67
2023-05-17T00:14:21.047Z,4.93
2023-05-17T00:16:49.630Z,5.80
2023-05-17T00:19:18.297Z,6.33
2023-05-17T00:21:47.084Z,5.40
2023-05-17T00:24:15.483Z,6.47
2023-05-17T00:26:44.365Z,6.40
2023-05-17T00:29:12.889Z,6.00
2023-05-17T00:31:42.813Z,6.10
2023-05-17T00:34:11.576Z,5.87
2023-05-17T00:36:40.060Z,6.00
2023-05-17T00:39:09.591Z,6.30
2023-05-17T00:41:39.009Z,5.23
2023-05-17T00:44:07.658Z,5.73
2023-05-17T00:46:36.178Z,6.93
2023-05-17T00:49:06.104Z,6.93
2023-05-17T00:51:36.191Z,7.50
2023-05-17T00:54:05.682Z,6.73
2023-05-17T00:56:34.479Z,6.60
2023-05-17T00:59:05.353Z,7.60
2023-05-17T01:01:35.187Z,5.77
2023-05-17T01:04:05.628Z,6.77
2023-05-17T01:06:35.415Z,7.47
2023-05-17T01:09:04.073Z,6.37
2023-05-17T01:11:44.210Z,7.13
2023-05-17T01:14:26.528Z,7.40
2023-05-17T01:17:00.261Z,7.83
2023-05-17T01:19:51.280Z,7.80
2023-05-17T01:22:33.032Z,8.43
2023-05-17T01:25:12.795Z,8.20
2023-05-17T01:27:46.591Z,7.97
2023-05-17T01:30:18.183Z,8.70
2023-05-17T01:32:47.485Z,8.70
2023-05-17T01:35:16.408Z,8.23
2023-05-17T01:37:44.897Z,8.47
2023-05-17T01:40:13.808Z,8.33
2023-05-17T01:42:44.667Z,8.80
2023-05-17T01:45:19.475Z,8.33
2023-05-17T01:47:54.645Z,8.93
2023-05-17T01:50:28.160Z,9.47
2023-05-17T01:53:01.375Z,8.33
2023-05-17T01:55:43.060Z,9.87
2023-05-17T01:58:14.545Z,8.90
2023-05-17T02:00:45.465Z,9.73
2023-05-17T02:03:15.702Z,9.73
2023-05-17T02:05:44.156Z,10.17
2023-05-17T02:08:12.844Z,10.67
2023-05-17T02:10:41.671Z,10.93
2023-05-17T02:13:10.245Z,10.40
2023-05-17T02:15:40.783Z,9.53
2023-05-17T02:18:09.383Z,10.00
2023-05-17T02:20:38.084Z,8.87
2023-05-17T02:23:06.633Z,9.57
2023-05-17T02:25:35.092Z,9.63
2023-05-17T02:28:03.666Z,9.10
2023-05-17T02:30:32.409Z,9.77
2023-05-17T02:33:02.422Z,10.60
2023-05-17T02:35:31.196Z,9.50
2023-05-17T02:37:59.809Z,10.90
2023-05-17T02:40:28.235Z,10.63
2023-05-17T02:42:56.647Z,8.33
2023-05-17T02:45:25.067Z,8.70
2023-05-17T02:47:53.768Z,8.77
2023-05-17T02:50:23.807Z,9.30
2023-05-17T02:52:52.687Z,7.97
2023-05-17T02:55:21.694Z,8.67
2023-05-17T02:57:50.275Z,8.87
2023-05-17T03:00:22.782Z,9.30
2023-05-17T03:02:51.336Z,9.73
2023-05-17T03:05:20.184Z,9.47
2023-05-17T03:07:52.948Z,11.40
2023-05-17T03:10:21.671Z,10.43
2023-05-17T03:12:50.364Z,12.63
2023-05-17T03:15:22.011Z,10.97
2023-05-17T03:17:50.682Z,10.33
2023-05-17T03:20:19.850Z,10.40
2023-05-17T03:22:50.116Z,9.87
2023-05-17T03:25:20.431Z,10.57
2023-05-17T03:27:49.422Z,10.27
2023-05-17T03:30:18.448Z,8.37
2023-05-17T03:32:48.178Z,7.57
2023-05-17T03:35:16.914Z,8.30
2023-05-17T03:37:49.309Z,9.97
2023-05-17T03:40:18.060Z,9.43
2023-05-17T03:42:51.643Z,8.93
2023-05-17T03:45:21.406Z,9.00
2023-05-17T03:47:49.842Z,10.60
2023-05-17T03:50:18.661Z,12.53
2023-05-17T03:52:47.260Z,10.37
2023-05-17T03:55:16.035Z,10.27
2023-05-17T03:57:44.531Z,11.67
2023-05-17T04:00:21.402Z,11.53
2023-05-17T04:02:50.046Z,13.47
2023-05-17T04:05:20.127Z,12.37
2023-05-17T04:07:49.807Z,13.10
2023-05-17T04:10:18.884Z,12.40
2023-05-17T04:12:47.759Z,12.53
2023-05-17T04:15:18.848Z,13.67
2023-05-17T04:17:47.410Z,12.37
2023-05-17T04:20:16.476Z,12.33
2023-05-17T04:22:45.613Z,12.53
2023-05-17T04:25:14.341Z,13.60
2023-05-17T04:27:43.389Z,12.70
2023-05-17T04:30:12.868Z,14.40
2023-05-17T04:32:43.350Z,13.63
2023-05-17T04:35:12.423Z,13.20
2023-05-17T04:37:43.841Z,13.00
2023-05-17T04:40:23.591Z,13.10
2023-05-17T04:42:52.786Z,13.63
2023-05-17T04:45:21.830Z,12.97
2023-05-17T04:47:52.950Z,13.03
2023-05-17T04:50:21.702Z,13.13
2023-05-17T04:52:50.257Z,12.73
2023-05-17T04:55:19.773Z,12.63
2023-05-17T04:57:48.588Z,12.00
2023-05-17T05:00:21.020Z,13.67
2023-05-17T05:02:58.212Z,12.97
2023-05-17T05:05:27.793Z,13.10
2023-05-17T05:07:56.911Z,13.30
2023-05-17T05:10:25.642Z,12.23
2023-05-17T05:12:54.547Z,12.40
2023-05-17T05:15:23.391Z,13.20
2023-05-17T05:17:58.753Z,12.87
2023-05-17T05:20:28.248Z,12.50
2023-05-17T05:22:58.965Z,14.83
2023-05-17T05:25:29.010Z,12.37
2023-05-17T05:27:57.940Z,14.27
2023-05-17T05:30:26.850Z,12.97
2023-05-17T05:32:58.611Z,12.77
2023-05-17T05:35:30.543Z,13.57
2023-05-17T05:38:00.671Z,12.10
2023-05-17T05:40:29.710Z,13.03
2023-05-17T05:42:58.612Z,12.60
2023-05-17T05:45:27.248Z,12.13
2023-05-17T05:48:01.193Z,11.93
2023-05-17T05:50:30.298Z,13.00
2023-05-17T05:53:17.377Z,12.07
2023-05-17T05:55:50.512Z,11.73
2023-05-17T05:58:19.659Z,11.83
2023-05-17T06:00:49.272Z,13.00
2023-05-17T06:03:19.336Z,11.80
2023-05-17T06:05:48.013Z,11.40
2023-05-17T06:08:16.601Z,11.50
2023-05-17T06:10:45.137Z,10.97
2023-05-17T06:13:13.986Z,11.07
2023-05-17T06:15:42.744Z,11.17
2023-05-17T06:18:11.415Z,9.77
2023-05-17T06:20:41.426Z,9.70
2023-05-17T06:23:09.999Z,9.03
2023-05-17T06:25:38.711Z,9.40
2023-05-17T06:28:09.431Z,8.07
2023-05-17T06:30:38.011Z,8.97
2023-05-17T06:33:06.858Z,8.53
2023-05-17T06:35:51.509Z,7.13
2023-05-17T06:38:25.408Z,7.23
2023-05-17T06:40:55.392Z,7.00
2023-05-17T06:43:24.386Z,7.07
2023-05-17T06:45:52.957Z,7.43
2023-05-17T06:48:21.879Z,6.87
2023-05-17T06:50:50.535Z,7.10
2023-05-17T06:53:19.054Z,5.27
2023-05-17T06:55:49.096Z,5.53
2023-05-17T06:58:17.685Z,6.10
2023-05-17T07:00:46.388Z,6.80
2023-05-17T07:03:15.068Z,5.50
2023-05-17T07:05:43.805Z,4.90
2023-05-17T07:08:12.580Z,4.00
2023-05-17T07:10:41.085Z,4.23
2023-05-17T07:13:11.037Z,4.57
2023-05-17T07:15:39.644Z,4.00
2023-05-17T07:18:08.530Z,4.03
2023-05-17T07:20:37.612Z,4.00
2023-05-17T07:23:06.316Z,3.40
2023-05-17T07:25:38.833Z,4.53
2023-05-17T07:28:08.058Z,3.90
2023-05-17T07:30:38.012Z,3.23
2023-05-17T07:33:06.805Z,3.47
2023-05-17T07:35:35.599Z,3.37
2023-05-17T07:38:04.353Z,3.73
2023-05-17T07:40:33.064Z,3.63
2023-05-17T07:43:01.731Z,3.60
2023-05-17T07:45:30.710Z,3.63
2023-05-17T07:48:00.813Z,3.53
2023-05-17T07:50:30.786Z,3.43
2023-05-17T07:52:59.332Z,3.93
2023-05-17T07:55:27.987Z,3.70
2023-05-17T07:57:56.785Z,3.43
2023-05-17T08:00:26.634Z,3.30
2023-05-17T08:02:55.459Z,3.53
2023-05-17T08:05:25.938Z,3.83
2023-05-17T08:07:54.664Z,3.33
2023-05-17T08:10:23.723Z,3.30
2023-05-17T08:12:52.256Z,4.03
2023-05-17T08:15:21.873Z,3.73
2023-05-17T08:17:53.125Z,3.83
2023-05-17T08:20:22.164Z,4.23
2023-05-17T08:22:52.341Z,3.77
2023-05-17T08:25:21.810Z,4.20
2023-05-17T08:27:50.321Z,3.70
2023-05-17T08:30:28.602Z,3.80
2023-05-17T08:33:00.703Z,4.30
2023-05-17T08:35:33.225Z,4.47
2023-05-17T08:38:03.754Z,3.93
2023-05-17T08:40:33.372Z,4.23
2023-05-17T08:43:03.586Z,3.60
2023-05-17T08:45:33.034Z,4.00
2023-05-17T08:48:05.417Z,3.90
2023-05-17T08:50:36.211Z,4.60
2023-05-17T08:53:06.642Z,4.53
2023-05-17T08:55:36.552Z,4.03
2023-05-17T08:58:07.321Z,4.07
2023-05-17T09:00:37.531Z,4.43
2023-05-17T09:03:07.572Z,3.93
2023-05-17T09:05:36.606Z,3.70
2023-05-17T09:08:07.264Z,3.87
2023-05-17T09:10:36.041Z,3.33
2023-05-17T09:13:04.720Z,3.93
2023-05-17T09:15:36.551Z,3.33
2023-05-17T09:18:05.826Z,3.60
2023-05-17T09:20:36.658Z,4.47
2023-05-17T09:23:08.276Z,3.70
2023-05-17T09:25:37.696Z,3.77
2023-05-17T09:28:09.002Z,2.80
2023-05-17T09:30:39.732Z,3.83
2023-05-17T09:33:09.698Z,4.03
2023-05-17T09:35:39.406Z,3.77
2023-05-17T09:38:11.488Z,3.17
2023-05-17T09:40:41.626Z,4.13
2023-05-17T09:43:10.666Z,3.60
2023-05-17T09:45:39.539Z,2.77
2023-05-17T09:48:16.153Z,4.30
2023-05-17T09:50:47.071Z,3.87
2023-05-17T09:53:31.097Z,3.07
2023-05-17T09:56:01.880Z,3.47
2023-05-17T09:58:33.712Z,3.00
2023-05-17T10:01:05.358Z,3.03
2023-05-17T10:03:35.907Z,4.03
2023-05-17T10:06:11.245Z,3.00
2023-05-17T10:08:46.180Z,3.57
2023-05-17T10:11:14.971Z,3.47
2023-05-17T10:13:49.062Z,2.70
2023-05-17T10:16:19.615Z,3.20
2023-05-17T10:18:49.232Z,2.87
2023-05-17T10:21:18.637Z,3.93
2023-05-17T10:23:49.422Z,3.00
2023-05-17T10:26:18.791Z,2.00
2023-05-17T10:28:51.186Z,2.60
2023-05-17T10:31:20.105Z,2.40
2023-05-17T10:33:52.152Z,3.00
2023-05-17T10:36:21.709Z,2.67
2023-05-17T10:38:53.199Z,2.27
2023-05-17T10:41:24.405Z,2.57
2023-05-17T10:43:54.369Z,2.67
2023-05-17T10:46:24.722Z,2.77
2023-05-17T10:48:54.274Z,3.20
2023-05-17T10:51:25.268Z,2.10
2023-05-17T10:54:10.814Z,2.40
2023-05-17T10:56:42.877Z,2.53
2023-05-17T10:59:23.425Z,3.00
2023-05-17T11:02:01.455Z,2.67
2023-05-17T11:04:34.750Z,2.70
2023-05-17T11:07:25.174Z,2.87
2023-05-17T11:09:56.722Z,2.57
2023-05-17T11:12:35.476Z,3.03
2023-05-17T11:15:10.724Z,2.43
2023-05-17T11:17:51.708Z,2.33
2023-05-17T11:20:35.429Z,2.17
2023-05-17T11:23:06.179Z,2.63
2023-05-17T11:25:39.891Z,2.57
2023-05-17T11:28:10.334Z,3.57
2023-05-17T11:30:51.302Z,2.77
2023-05-17T11:33:33.192Z,2.70
2023-05-17T11:36:07.598Z,3.13
2023-05-17T11:38:36.580Z,3.20
2023-05-17T11:43:53.931Z,2.70
2023-05-17T11:46:24.413Z,2.77
2023-05-17T11:48:54.588Z,2.90
2023-05-17T11:51:25.172Z,3.10
2023-05-17T11:53:56.100Z,2.53
2023-05-17T11:56:42.022Z,2.37
2023-05-17T11:59:11.718Z,2.53
2023-05-17T12:01:47.279Z,2.43
2023-05-17T12:04:17.361Z,2.90
2023-05-17T12:06:46.368Z,2.43
2023-05-17T12:09:18.224Z,3.30
2023-05-17T12:11:48.907Z,2.57
2023-05-17T12:14:18.570Z,2.60
2023-05-17T12:16:52.257Z,2.60
2023-05-17T12:19:22.366Z,2.40
2023-05-17T12:21:51.670Z,3.73
2023-05-17T12:24:20.448Z,2.23
2023-05-17T12:26:50.538Z,2.37
2023-05-17T12:29:23.244Z,2.77
2023-05-17T12:31:55.292Z,2.33
2023-05-17T12:34:24.527Z,3.50
2023-05-17T12:36:55.127Z,2.67
2023-05-17T12:39:24.919Z,2.70
2023-05-17T12:41:55.545Z,2.80
2023-05-17T12:44:24.554Z,2.50
2023-05-17T12:46:54.179Z,2.50
2023-05-17T12:49:23.538Z,2.47
2023-05-17T12:51:52.256Z,3.00
2023-05-17T12:54:29.227Z,2.37
2023-05-17T12:56:59.409Z,3.03
2023-05-17T12:59:29.304Z,3.50
2023-05-17T13:02:00.838Z,2.50
2023-05-17T13:04:34.419Z,2.73
2023-05-17T13:07:04.961Z,2.03
2023-05-17T13:09:34.705Z,2.43
2023-05-17T13:12:08.233Z,2.33
2023-05-17T13:14:38.722Z,2.23
2023-05-17T13:17:09.286Z,2.70
2023-05-17T13:19:39.217Z,2.80
2023-05-17T13:22:08.382Z,2.40
2023-05-17T13:24:38.421Z,2.33
2023-05-17T13:27:09.936Z,3.10
2023-05-17T13:29:43.329Z,2.40
2023-05-17T13:32:13.912Z,2.63
2023-05-17T13:34:42.694Z,2.80
2023-05-17T13:37:12.658Z,2.23
2023-05-17T13:39:42.182Z,2.17
2023-05-17T13:42:13.716Z,2.57
2023-05-17T13:44:42.486Z,2.20
2023-05-17T13:47:11.233Z,2.47
2023-05-17T13:49:39.790Z,2.40
2023-05-17T13:52:09.648Z,2.80
2023-05-17T13:54:39.307Z,2.40
2023-05-17T13:57:08.495Z,2.30
2023-05-17T13:59:39.448Z,2.60
2023-05-17T14:02:09.319Z,2.77
2023-05-17T14:04:37.875Z,2.40
2023-05-17T14:07:06.722Z,2.50
2023-05-17T14:09:36.865Z,2.70
2023-05-17T14:12:06.290Z,2.83
2023-05-17T14:14:34.947Z,2.83
2023-05-17T14:17:05.248Z,2.20
2023-05-17T14:19:33.874Z,2.87
2023-05-17T14:22:02.573Z,2.80
2023-05-17T14:24:31.132Z,2.63
2023-05-17T14:26:59.834Z,2.40
2023-05-17T14:29:30.201Z,2.93
2023-05-17T14:31:58.789Z,2.80
2023-05-17T14:34:28.848Z,3.03
2023-05-17T14:36:58.068Z,2.87
2023-05-17T14:39:26.930Z,3.37
2023-05-17T14:41:55.809Z,2.30
2023-05-17T14:44:24.655Z,2.93
2023-05-17T14:46:53.392Z,2.90
2023-05-17T14:49:22.346Z,2.80
2023-05-17T14:51:52.637Z,3.13
2023-05-17T14:54:21.518Z,3.70
2023-05-17T14:56:50.086Z,3.30
2023-05-17T14:59:18.749Z,3.47
2023-05-17T15:01:47.560Z,3.37
2023-05-17T15:04:16.404Z,2.83
2023-05-17T15:06:45.915Z,3.03
2023-05-17T15:09:18.355Z,3.97
2023-05-17T15:11:47.159Z,3.73
2023-05-17T15:14:19.286Z,3.07
2023-05-17T15:16:48.144Z,3.10
2023-05-17T15:19:17.175Z,3.70
2023-05-17T15:21:46.785Z,3.83
2023-05-17T15:24:17.989Z,2.97
2023-05-17T15:26:46.837Z,3.83
2023-05-17T15:29:15.592Z,3.30
2023-05-17T15:31:44.437Z,3.30
2023-05-17T15:34:13.537Z,3.43
2023-05-17T15:36:42.422Z,3.53
2023-05-17T15:39:11.123Z,3.93
2023-05-17T15:41:41.284Z,3.27
2023-05-17T15:44:10.033Z,3.20
2023-05-17T15:46:39.209Z,3.00
2023-05-17T15:49:07.836Z,3.30
2023-05-17T15:51:36.347Z,3.13
2023-05-17T15:54:05.281Z,3.63
2023-05-17T15:56:33.948Z,3.13
2023-05-17T15:59:04.156Z,2.70
2023-05-17T16:01:32.831Z,3.70
2023-05-17T16:04:01.634Z,3.57
2023-05-17T16:06:36.076Z,2.87
2023-05-17T16:09:04.835Z,3.37
2023-05-17T16:11:33.646Z,3.93
2023-05-17T16:14:03.684Z,3.37
2023-05-17T16:16:32.416Z,3.50
2023-05-17T16:19:01.414Z,3.40
2023-05-17T16:21:30.209Z,3.30
2023-05-17T16:23:58.829Z,3.47
2023-05-17T16:26:27.960Z,4.13
2023-05-17T16:28:58.994Z,4.03
2023-05-17T16:31:29.478Z,3.67
2023-05-17T16:33:58.139Z,3.87
2023-05-17T16:36:27.382Z,3.33
2023-05-17T16:38:55.997Z,4.40
2023-05-17T16:41:26.269Z,3.70
2023-05-17T16:43:54.943Z,3.73
2023-05-17T16:46:25.016Z,3.10
2023-05-17T16:48:55.744Z,3.10
2023-05-17T16:51:24.600Z,3.13
2023-05-17T16:53:53.208Z,3.50
2023-05-17T16:56:22.422Z,3.20
2023-05-17T16:58:52.501Z,4.23
2023-05-17T17:01:21.461Z,3.67
2023-05-17T17:03:54.922Z,3.10
2023-05-17T17:06:27.345Z,2.83
2023-05-17T17:08:56.300Z,3.60
2023-05-17T17:11:24.900Z,3.20
2023-05-17T17:13:53.595Z,3.40
2023-05-17T17:16:22.854Z,3.87
2023-05-17T17:18:51.547Z,3.60
2023-05-17T17:21:20.607Z,3.60
2023-05-17T17:23:51.162Z,2.83
2023-05-17T17:26:19.877Z,2.77
2023-05-17T17:28:48.609Z,3.00
2023-05-17T17:31:18.370Z,3.37
2023-05-17T17:33:46.869Z,3.17
2023-05-17T17:36:15.872Z,3.17
2023-05-17T17:38:45.040Z,3.30
2023-05-17T17:41:15.202Z,3.50
2023-05-17T17:43:47.057Z,3.67
2023-05-17T17:46:15.859Z,3.70
2023-05-17T17:48:44.485Z,2.83
2023-05-17T17:51:13.215Z,3.90
2023-05-17T17:53:42.570Z,3.80
2023-05-17T17:56:11.222Z,3.70
2023-05-17T17:58:41.467Z,2.90
2023-05-17T18:01:10.202Z,3.47
2023-05-17T18:03:38.783Z,2.73
2023-05-17T18:06:07.858Z,2.93
2023-05-17T18:08:36.407Z,2.80
2023-05-17T18:11:05.307Z,4.03
2023-05-17T18:13:34.189Z,3.33
2023-05-17T18:16:04.474Z,3.03
2023-05-17T18:18:33.263Z,3.77
2023-05-17T18:21:02.197Z,3.67
2023-05-17T18:23:30.980Z,3.37
2023-05-17T18:25:59.591Z,3.80
2023-05-17T18:28:41.337Z,3.30
2023-05-17T18:31:14.279Z,2.93
2023-05-17T18:33:43.053Z,3.37
2023-05-17T18:36:11.961Z,3.53
2023-05-17T18:38:40.887Z,3.23
2023-05-17T18:41:09.661Z,3.73
2023-05-17T18:43:38.436Z,3.00
2023-05-17T18:46:07.074Z,3.60
2023-05-17T18:48:37.105Z,3.80
2023-05-17T18:51:06.905Z,3.27
2023-05-17T18:53:36.185Z,3.70
2023-05-17T18:56:04.875Z,4.13
2023-05-17T18:58:33.539Z,3.80
2023-05-17T19:01:02.848Z,4.20
2023-05-17T19:03:32.974Z,3.40
2023-05-17T19:06:03.470Z,3.53
2023-05-17T19:08:32.406Z,3.70
2023-05-17T19:11:04.205Z,3.87
2023-05-17T19:13:50.425Z,5.20
2023-05-17T19:16:21.387Z,4.27
2023-05-17T19:18:50.161Z,4.60
2023-05-17T19:21:20.347Z,4.27
2023-05-17T19:23:48.983Z,3.50
2023-05-17T19:26:17.609Z,3.93
2023-05-17T19:28:46.260Z,3.13
2023-05-17T19:31:14.747Z,2.80
2023-05-17T19:33:43.285Z,3.90
2023-05-17T19:36:12.111Z,3.33
2023-05-17T19:38:42.031Z,3.70
2023-05-17T19:41:10.594Z,3.30
2023-05-17T19:43:39.384Z,3.00
2023-05-17T19:46:10.853Z,4.60
2023-05-17T19:48:40.088Z,3.30
2023-05-17T19:51:08.609Z,3.73
2023-05-17T19:53:50.694Z,3.33
2023-05-17T19:56:22.289Z,2.90
2023-05-17T19:58:50.795Z,3.47
2023-05-17T20:01:19.460Z,3.43
2023-05-17T20:03:48.341Z,4.40
2023-05-17T20:06:17.235Z,3.90
2023-05-17T20:08:46.745Z,4.57
2023-05-17T20:11:15.588Z,4.93
2023-05-17T20:13:45.758Z,5.30
2023-05-17T20:16:14.717Z,5.73
2023-05-17T20:18:44.521Z,3.87
2023-05-17T20:21:18.281Z,3.77
2023-05-17T20:23:47.040Z,5.07
2023-05-17T20:26:19.180Z,6.23
2023-05-17T20:28:49.464Z,5.50
2023-05-17T20:31:18.339Z,5.07
2023-05-17T20:33:47.050Z,5.03
2023-05-17T20:36:16.286Z,3.70
2023-05-17T20:38:44.918Z,4.10
2023-05-17T20:41:15.079Z,4.13
2023-05-17T20:43:46.435Z,3.90
2023-05-17T20:46:16.769Z,4.10
2023-05-17T20:48:47.940Z,3.13
2023-05-17T20:51:17.879Z,3.60
2023-05-17T20:53:46.947Z,3.63
2023-05-17T20:56:16.348Z,3.83
2023-05-17T20:58:45.079Z,3.17
2023-05-17T21:01:15.367Z,3.07
2023-05-17T21:03:44.289Z,3.57
2023-05-17T21:06:13.209Z,3.60
2023-05-17T21:08:42.932Z,3.87
2023-05-17T21:11:15.286Z,4.23
2023-05-17T21:13:44.000Z,3.70
2023-05-17T21:16:12.702Z,2.80
2023-05-17T21:18:42.694Z,3.50
2023-05-17T21:21:11.343Z,4.13
2023-05-17T21:23:40.190Z,4.23
2023-05-17T21:26:09.157Z,2.80
2023-05-17T21:28:37.784Z,3.30
2023-05-17T21:31:06.654Z,3.77
2023-05-17T21:33:35.203Z,3.50
2023-05-17T21:36:05.765Z,3.10
2023-05-17T21:38:34.325Z,2.90
2023-05-17T21:41:03.157Z,3.27
2023-05-17T21:43:31.603Z,2.67
2023-05-17T21:46:00.261Z,3.10
2023-05-17T21:48:28.913Z,2.83
2023-05-17T21:50:57.697Z,4.00
2023-05-17T21:53:27.654Z,3.27
2023-05-17T21:56:02.595Z,3.87
2023-05-17T21:58:32.485Z,3.10
2023-05-17T22:01:01.270Z,3.30
2023-05-17T22:03:30.167Z,3.53
2023-05-17T22:05:59.103Z,4.63
2023-05-17T22:08:29.307Z,4.33
2023-05-17T22:10:57.846Z,2.93
2023-05-17T22:13:26.996Z,3.47
2023-05-17T22:15:57.664Z,4.07
2023-05-17T22:18:27.527Z,3.67
2023-05-17T22:20:59.492Z,3.30
2023-05-17T22:23:29.679Z,3.63
2023-05-17T22:26:00.471Z,3.40
2023-05-17T22:28:29.830Z,2.97
2023-05-17T22:30:58.334Z,3.33
2023-05-17T22:33:29.699Z,3.37
2023-05-17T22:35:58.834Z,3.70
2023-05-17T22:38:27.514Z,3.73
2023-05-17T22:40:57.472Z,4.10
2023-05-17T22:43:28.217Z,3.53
2023-05-17T22:45:59.976Z,3.63
2023-05-17T22:48:30.616Z,3.60
2023-05-17T22:51:01.133Z,4.90
2023-05-17T22:53:29.871Z,3.33
2023-05-17T22:56:00.009Z,4.07
2023-05-17T22:58:28.592Z,3.97
2023-05-17T23:00:57.165Z,4.63
2023-05-17T23:03:25.783Z,4.47
2023-05-17T23:06:03.152Z,3.93
2023-05-17T23:08:33.392Z,5.03
2023-05-17T23:11:05.023Z,4.00
2023-05-17T23:13:33.973Z,3.87
2023-05-17T23:16:02.807Z,3.90
2023-05-17T23:18:31.367Z,4.13
2023-05-17T23:21:00.269Z,4.20
2023-05-17T23:23:29.982Z,3.20
2023-05-17T23:25:58.952Z,4.37
2023-05-17T23:28:28.985Z,4.27
2023-05-17T23:31:02.389Z,3.23
2023-05-17T23:33:31.636Z,3.77
2023-05-17T23:36:00.167Z,3.47
2023-05-17T23:38:28.616Z,3.93
2023-05-17T23:40:58.359Z,3.27
2023-05-17T23:43:28.244Z,3.93
2023-05-17T23:45:57.635Z,4.00
2023-05-17T23:48:26.753Z,4.23
2023-05-17T23:50:55.480Z,3.80
2023-05-17T23:53:26.213Z,3.87
2023-05-17T23:55:54.861Z,4.37
2023-05-17T23:58:23.309Z,3.20
